Time;durP1;ratioP1;P1;durP2;ratioP2;P2;SDS_P1;SDS_P2;PMS_P1;PMS_P2;Temp;Humidity;BMP_temperature;BMP_pressure;BME280_temperature;BME280_humidity;BME280_pressure;Samples;Min_cycle;Max_cycle;Signal;HPM_P1;HPM_P2
2021/03/01 00:00:11;;;;;;;;;8.40;6.50;;;;;1.26;100.00;100496.80;474644;113;374042;-55
2021/03/01 00:01:15;;;;;;;;;9.90;8.40;;;;;1.40;100.00;100524.64;471883;113;374291;-52
2021/03/01 00:02:20;;;;;;;;;7.70;3.40;;;;;1.40;100.00;100519.47;471596;113;373450;-53
2021/03/01 00:03:24;;;;;;;;;8.50;8.10;;;;;1.41;100.00;100516.85;472783;115;374301;-54
2021/03/01 00:04:29;;;;;;;;;8.40;7.30;;;;;1.47;100.00;100520.92;473658;113;374886;-54
2021/03/01 00:05:33;;;;;;;;;5.40;4.30;;;;;1.46;100.00;100521.82;471655;115;373499;-53
2021/03/01 00:06:38;;;;;;;;;10.80;8.40;;;;;1.47;100.00;100519.17;474934;113;374538;-53
2021/03/01 00:07:42;;;;;;;;;8.60;7.10;;;;;1.48;100.00;100513.09;471099;114;373777;-54
2021/03/01 00:08:46;;;;;;;;;8.80;8.20;;;;;1.50;100.00;100518.20;473616;113;373420;-53
2021/03/01 00:09:51;;;;;;;;;11.30;9.20;;;;;1.53;100.00;100526.66;488155;110;376156;-56
2021/03/01 00:10:55;;;;;;;;;7.60;6.60;;;;;1.55;100.00;100513.67;488581;110;374253;-54
2021/03/01 00:12:00;;;;;;;;;10.30;7.80;;;;;1.57;100.00;100506.69;486310;110;374369;-53
2021/03/01 00:13:04;;;;;;;;;7.70;7.30;;;;;1.59;100.00;100509.20;488092;110;374201;-54
2021/03/01 00:14:08;;;;;;;;;8.80;8.20;;;;;1.60;100.00;100508.30;479618;112;375522;-54
2021/03/01 00:15:14;;;;;;;;;8.80;7.20;;;;;1.60;100.00;100508.30;477911;113;374890;-54
2021/03/01 00:16:19;;;;;;;;;7.70;6.90;;;;;1.65;100.00;100506.38;485561;110;373853;-53
2021/03/01 00:17:24;;;;;;;;;8.30;7.70;;;;;1.67;100.00;100502.82;486477;110;372275;-52
2021/03/01 00:18:28;;;;;;;;;11.70;6.80;;;;;1.67;100.00;100502.82;487683;109;372431;-54
2021/03/01 00:19:33;;;;;;;;;9.00;9.00;;;;;1.72;100.00;100510.38;484874;111;373135;-54
2021/03/01 00:20:37;;;;;;;;;12.70;8.00;;;;;1.71;100.00;100498.36;485162;111;375122;-54
2021/03/01 00:21:41;;;;;;;;;11.30;7.70;;;;;1.72;100.00;100506.05;487167;111;372632;-54
2021/03/01 00:22:46;;;;;;;;;9.80;6.50;;;;;1.71;100.00;100509.53;488093;109;374172;-52
2021/03/01 00:23:50;;;;;;;;;13.30;7.40;;;;;1.71;100.00;100509.53;488375;110;376107;-53
2021/03/01 00:24:54;;;;;;;;;9.00;7.80;;;;;1.75;100.00;100516.25;487532;110;373196;-52
2021/03/01 00:25:59;;;;;;;;;3.60;0.40;;;;;1.78;100.00;100518.70;487355;110;369700;-54
2021/03/01 00:27:04;;;;;;;;;12.20;9.40;;;;;1.78;100.00;100518.70;484980;111;371575;-53
2021/03/01 00:28:09;;;;;;;;;8.80;8.20;;;;;1.66;100.00;100521.83;483275;111;368968;-53
2021/03/01 00:29:13;;;;;;;;;9.60;8.50;;;;;1.66;100.00;100521.83;484698;111;369103;-54
2021/03/01 00:30:23;;;;;;;;;9.80;8.10;;;;;1.64;100.00;100526.22;483459;111;371131;-53
2021/03/01 00:31:27;;;;;;;;;9.50;6.80;;;;;1.68;100.00;100530.36;486883;111;370618;-54
2021/03/01 00:32:32;;;;;;;;;8.50;7.00;;;;;1.67;100.00;100528.67;488635;110;368270;-53
2021/03/01 00:33:36;;;;;;;;;9.00;8.30;;;;;1.59;100.00;100540.23;488013;111;370512;-54
2021/03/01 00:34:41;;;;;;;;;11.40;7.70;;;;;1.60;100.00;100541.91;487066;111;369588;-53
2021/03/01 00:35:45;;;;;;;;;8.90;6.70;;;;;1.59;100.00;100537.64;485884;111;370262;-53
2021/03/01 00:36:50;;;;;;;;;7.90;7.80;;;;;1.62;100.00;100534.95;487876;110;368810;-55
2021/03/01 00:37:55;;;;;;;;;11.00;8.00;;;;;1.58;100.00;100534.22;486032;111;368439;-53
2021/03/01 00:39:00;;;;;;;;;11.00;8.00;;;;;1.57;100.00;100536.87;490581;109;369307;-54
2021/03/01 00:40:06;;;;;;;;;10.80;8.20;;;;;1.49;100.00;100530.28;488111;110;372196;-55
2021/03/01 00:41:10;;;;;;;;;7.90;6.50;;;;;1.52;100.00;100535.32;483455;109;368817;-54
2021/03/01 00:42:15;;;;;;;;;8.80;7.90;;;;;1.53;100.00;100530.98;484677;111;369993;-56
2021/03/01 00:43:19;;;;;;;;;9.60;7.10;;;;;1.55;100.00;100536.94;486929;110;370633;-56
2021/03/01 00:44:25;;;;;;;;;7.70;6.50;;;;;1.56;100.00;100542.94;487640;110;368510;-52
2021/03/01 00:45:29;;;;;;;;;9.40;9.40;;;;;1.54;100.00;100545.59;485960;111;373127;-54
2021/03/01 00:46:34;;;;;;;;;8.40;7.00;;;;;1.59;100.00;100546.23;485806;111;368778;-54
2021/03/01 00:47:38;;;;;;;;;8.60;8.10;;;;;1.59;100.00;100546.23;484731;111;368710;-52
2021/03/01 00:48:43;;;;;;;;;10.30;7.50;;;;;1.54;100.00;100545.59;485518;111;373395;-54
2021/03/01 00:49:47;;;;;;;;;8.20;8.20;;;;;1.57;100.00;100553.22;486545;111;370637;-53
2021/03/01 00:50:52;;;;;;;;;10.90;8.40;;;;;1.60;100.00;100554.83;485396;111;369395;-54
2021/03/01 00:51:56;;;;;;;;;13.50;9.80;;;;;1.62;100.00;100560.80;485948;111;373222;-54
2021/03/01 00:53:01;;;;;;;;;7.60;7.10;;;;;1.58;100.00;100560.06;486181;109;370735;-53
2021/03/01 00:54:06;;;;;;;;;8.80;8.80;;;;;1.47;100.00;100564.86;486701;110;369150;-53
2021/03/01 00:55:11;;;;;;;;;10.20;8.20;;;;;1.53;100.00;100572.34;484457;111;371616;-54
2021/03/01 00:56:16;;;;;;;;;9.20;8.20;;;;;1.51;100.00;100581.91;481927;112;370692;-54
2021/03/01 00:57:20;;;;;;;;;8.10;7.20;;;;;1.53;100.00;100583.52;482209;112;370028;-53
2021/03/01 00:58:25;;;;;;;;;11.60;8.10;;;;;1.55;100.00;100586.05;471038;115;368783;-53
2021/03/01 00:59:29;;;;;;;;;10.80;8.90;;;;;1.53;100.00;100583.52;472905;115;372016;-53
2021/03/01 01:00:33;;;;;;;;;8.60;8.00;;;;;1.56;100.00;100592.89;460069;117;368964;-54
2021/03/01 01:01:38;;;;;;;;;11.30;10.30;;;;;1.55;100.00;100598.97;465491;117;372174;-54
2021/03/01 01:02:43;;;;;;;;;11.60;9.10;;;;;1.55;100.00;100598.97;479465;112;371107;-53
2021/03/01 01:03:48;;;;;;;;;12.90;9.80;;;;;1.59;100.00;100608.27;479309;112;375637;-55
2021/03/01 01:04:52;;;;;;;;;8.40;7.80;;;;;1.52;100.00;100612.86;474386;115;371308;-53
2021/03/01 01:05:56;;;;;;;;;13.30;9.90;;;;;1.56;100.00;100615.31;475896;114;373030;-54
2021/03/01 01:07:01;;;;;;;;;11.60;8.20;;;;;1.58;100.00;100605.75;473894;112;371864;-53
2021/03/01 01:08:06;;;;;;;;;10.90;8.80;;;;;1.61;100.00;100605.66;479296;113;372946;-53
2021/03/01 01:09:10;;;;;;;;;10.90;7.00;;;;;1.60;100.00;100619.45;475938;113;367859;-53
2021/03/01 01:10:16;;;;;;;;;8.20;7.70;;;;;1.59;100.00;100618.61;483043;112;370875;-53
2021/03/01 01:11:21;;;;;;;;;11.90;9.60;;;;;1.59;100.00;100618.61;484358;112;374532;-53
2021/03/01 01:12:25;;;;;;;;;13.10;8.70;;;;;1.58;100.00;100619.52;485008;112;369391;-53
2021/03/01 01:13:29;;;;;;;;;9.40;7.50;;;;;1.56;100.00;100625.66;485306;112;369562;-53
2021/03/01 01:14:33;;;;;;;;;8.60;7.70;;;;;1.56;100.00;100631.67;480619;112;372692;-51
2021/03/01 01:15:38;;;;;;;;;6.50;6.50;;;;;1.56;100.00;100631.67;481018;112;370882;-55
2021/03/01 01:16:43;;;;;;;;;7.50;7.10;;;;;1.57;100.00;100629.92;479413;112;368117;-54
2021/03/01 01:17:51;;;;;;;;;9.80;5.40;;;;;1.51;100.00;100628.44;484576;112;370451;-53
2021/03/01 01:18:55;;;;;;;;;9.20;6.10;;;;;1.49;100.00;100631.09;480850;112;372150;-54
2021/03/01 01:20:00;;;;;;;;;10.40;7.70;;;;;1.49;100.00;100633.67;485109;112;367759;-54
2021/03/01 01:21:05;;;;;;;;;9.10;6.40;;;;;1.50;100.00;100640.52;485295;112;369573;-53
2021/03/01 01:22:10;;;;;;;;;7.70;6.70;;;;;1.51;100.00;100647.37;483030;112;370179;-55
2021/03/01 01:23:14;;;;;;;;;7.60;6.40;;;;;1.51;100.00;100649.11;482337;112;367761;-55
2021/03/01 01:24:18;;;;;;;;;8.00;5.50;;;;;1.52;100.00;100648.20;485273;112;369230;-52
2021/03/01 01:25:23;;;;;;;;;8.30;7.50;;;;;1.51;100.00;100644.78;483472;112;371064;-53
2021/03/01 01:26:28;;;;;;;;;6.80;6.30;;;;;1.52;100.00;100640.45;480030;112;369716;-54
2021/03/01 01:27:32;;;;;;;;;9.40;7.00;;;;;1.48;100.00;100646.66;470474;115;370171;-55
2021/03/01 01:28:36;;;;;;;;;10.80;7.80;;;;;1.48;100.00;100646.66;473698;115;370469;-53
2021/03/01 01:29:41;;;;;;;;;10.30;8.80;;;;;1.50;100.00;100645.69;474706;113;373910;-53
2021/03/01 01:30:46;;;;;;;;;7.90;7.90;;;;;1.50;100.00;100645.69;482244;113;370990;-53
2021/03/01 01:31:50;;;;;;;;;8.40;5.50;;;;;1.49;100.00;100648.34;475684;113;370572;-55
2021/03/01 01:32:55;;;;;;;;;5.80;5.20;;;;;1.53;100.00;100649.89;478591;113;370888;-55
2021/03/01 01:33:59;;;;;;;;;8.50;6.10;;;;;1.56;100.00;100654.09;467099;116;371504;-55
2021/03/01 01:35:05;;;;;;;;;7.50;5.80;;;;;1.57;100.00;100656.61;460834;117;370963;-55
2021/03/01 01:36:10;;;;;;;;;8.30;6.10;;;;;1.57;100.00;100650.60;462341;117;368989;-53
2021/03/01 01:37:17;;;;;;;;;7.70;7.30;;;;;1.57;100.00;100651.45;461868;117;369934;-53
2021/03/01 01:38:21;;;;;;;;;6.30;4.70;;;;;1.57;100.00;100651.45;468650;116;365670;-53
2021/03/01 01:39:25;;;;;;;;;4.70;4.00;;;;;1.56;100.00;100649.77;470791;115;368787;-54
2021/03/01 01:40:30;;;;;;;;;6.80;5.70;;;;;1.51;100.00;100655.13;474582;115;369065;-53
2021/03/01 01:41:35;;;;;;;;;7.60;5.20;;;;;1.51;100.00;100655.13;473699;115;368085;-53
2021/03/01 01:42:39;;;;;;;;;6.20;4.80;;;;;1.60;100.00;100651.31;484674;112;368108;-52
2021/03/01 01:43:44;;;;;;;;;8.00;7.40;;;;;1.61;100.00;100652.19;480220;112;367499;-53
2021/03/01 01:44:48;;;;;;;;;6.50;5.20;;;;;1.50;100.00;100653.44;473941;115;369738;-52
2021/03/01 01:45:52;;;;;;;;;8.60;6.50;;;;;1.57;100.00;100651.45;472351;114;366720;-51
2021/03/01 01:46:57;;;;;;;;;7.30;6.50;;;;;1.57;100.00;100653.19;479346;112;369824;-56
2021/03/01 01:48:01;;;;;;;;;6.30;5.30;;;;;1.61;100.00;100636.67;480396;112;369577;-53
2021/03/01 01:49:06;;;;;;;;;10.20;6.60;;;;;1.60;100.00;100645.30;483053;112;370868;-53
2021/03/01 01:50:12;;;;;;;;;7.60;6.70;;;;;1.64;100.00;100649.48;484827;112;370868;-53
2021/03/01 01:51:18;;;;;;;;;3.60;2.40;;;;;1.61;100.00;100642.69;465252;116;369783;-53
2021/03/01 01:52:23;;;;;;;;;9.90;6.20;;;;;1.67;100.00;100639.84;464278;116;370238;-53
2021/03/01 01:53:27;;;;;;;;;8.20;5.50;;;;;1.67;100.00;100639.84;469553;116;369682;-53
2021/03/01 01:54:31;;;;;;;;;9.50;7.50;;;;;1.67;100.00;100645.02;461228;118;370134;-54
2021/03/01 01:55:36;;;;;;;;;8.80;5.60;;;;;1.68;100.00;100646.70;459097;118;364329;-54
2021/03/01 01:56:41;;;;;;;;;7.60;6.80;;;;;1.66;100.00;100651.09;460230;116;369230;-54
2021/03/01 01:57:46;;;;;;;;;5.30;4.90;;;;;1.66;100.00;100651.09;466073;116;369941;-53
2021/03/01 01:58:50;;;;;;;;;6.20;6.20;;;;;1.68;100.00;100649.28;462377;116;369479;-53
2021/03/01 01:59:55;;;;;;;;;7.00;5.30;;;;;1.69;100.00;100643.20;466633;115;368397;-54
2021/03/01 02:00:59;;;;;;;;;1.90;1.20;;;;;1.69;100.00;100643.20;466937;116;369011;-54
2021/03/01 02:02:04;;;;;;;;;7.70;5.00;;;;;1.66;100.00;100656.27;461010;118;368911;-53
2021/03/01 02:03:12;;;;;;;;;8.20;8.00;;;;;1.64;100.00;100647.73;467132;116;368899;-53
2021/03/01 02:04:20;;;;;;;;;9.40;5.40;;;;;1.61;100.00;100650.45;466172;116;369417;-53
2021/03/01 02:05:24;;;;;;;;;6.40;5.60;;;;;1.66;100.00;100642.49;466581;116;367533;-53
2021/03/01 02:06:39;;;;;;;;;8.20;6.20;;;;;1.64;100.00;100639.14;463927;115;370215;-53
2021/03/01 02:07:50;;;;;;;;;8.70;7.50;;;;;1.65;100.00;100645.98;466702;115;369062;-53
2021/03/01 02:09:02;;;;;;;;;6.50;5.40;;;;;1.65;100.00;100645.98;466249;115;368030;-54
2021/03/01 02:10:10;;;;;;;;;6.30;6.30;;;;;1.57;100.00;100648.86;466128;114;367747;-52
2021/03/01 02:11:19;;;;;;;;;7.90;6.20;;;;;1.61;100.00;100650.45;480895;112;368013;-54
2021/03/01 02:12:26;;;;;;;;;8.20;6.80;;;;;1.62;100.00;100653.87;484242;112;368961;-54
2021/03/01 02:13:31;;;;;;;;;7.70;6.70;;;;;1.55;100.00;100652.41;482261;112;368012;-54
2021/03/01 02:14:41;;;;;;;;;8.90;5.50;;;;;1.52;100.00;100658.55;483475;112;370710;-54
2021/03/01 02:15:48;;;;;;;;;7.00;5.30;;;;;1.52;100.00;100658.55;484642;112;367042;-53
2021/03/01 02:16:54;;;;;;;;;7.80;7.10;;;;;1.51;100.00;100662.88;478282;112;368624;-52
2021/03/01 02:17:58;;;;;;;;;10.20;6.70;;;;;1.51;100.00;100668.05;484613;112;371396;-54
2021/03/01 02:19:03;;;;;;;;;9.20;8.00;;;;;1.51;100.00;100668.05;483936;112;368441;-54
2021/03/01 02:20:11;;;;;;;;;10.70;7.40;;;;;1.58;100.00;100678.13;485263;112;369489;-54
2021/03/01 02:21:15;;;;;;;;;8.50;7.00;;;;;1.52;100.00;100676.64;484904;112;368455;-53
2021/03/01 02:22:19;;;;;;;;;8.00;7.60;;;;;1.53;100.00;100679.16;485339;112;369255;-53
2021/03/01 02:23:23;;;;;;;;;3.10;1.90;;;;;1.55;100.00;100686.02;480146;112;365479;-53
2021/03/01 02:24:32;;;;;;;;;8.10;6.10;;;;;1.55;100.00;100686.85;485326;112;370181;-51
2021/03/01 02:25:36;;;;;;;;;10.80;7.90;;;;;1.08;100.00;100606.87;476973;112;373300;-53
2021/03/01 02:26:41;;;;;;;;;9.50;5.90;;;;;1.56;100.00;100696.29;484926;112;371058;-52
2021/03/01 02:27:49;;;;;;;;;9.60;6.60;;;;;1.59;100.00;100695.33;482962;112;370544;-54
2021/03/01 02:28:55;;;;;;;;;9.50;7.50;;;;;1.60;100.00;100703.02;483820;112;370630;-54
2021/03/01 02:30:03;;;;;;;;;7.70;7.30;;;;;1.60;100.00;100703.02;485089;112;370853;-54
2021/03/01 02:31:07;;;;;;;;;9.60;6.90;;;;;1.60;100.00;100709.94;475541;114;370284;-55
2021/03/01 02:32:11;;;;;;;;;11.10;8.10;;;;;1.60;100.00;100704.77;484524;112;370783;-55
2021/03/01 02:33:18;;;;;;;;;8.30;6.20;;;;;1.60;100.00;100704.77;484335;112;369478;-54
2021/03/01 02:34:22;;;;;;;;;8.00;5.70;;;;;1.50;100.00;100712.05;480366;113;369657;-54
2021/03/01 02:35:27;;;;;;;;;4.40;3.40;;;;;1.50;100.00;100712.05;467458;116;370533;-53
2021/03/01 02:36:33;;;;;;;;;9.60;7.00;;;;;1.59;100.00;100710.84;474942;114;369915;-54
2021/03/01 02:37:38;;;;;;;;;6.60;5.50;;;;;1.60;100.00;100717.69;483704;112;370013;-51
2021/03/01 02:38:42;;;;;;;;;6.90;6.00;;;;;1.59;100.00;100716.00;484911;112;368545;-52
2021/03/01 02:39:47;;;;;;;;;7.80;5.50;;;;;1.58;100.00;100719.49;475697;115;369386;-55
2021/03/01 02:40:51;;;;;;;;;10.40;8.10;;;;;1.59;100.00;100714.27;476516;113;371923;-54
2021/03/01 02:41:56;;;;;;;;;11.10;8.60;;;;;1.62;100.00;100719.34;480135;112;370083;-54
2021/03/01 02:43:00;;;;;;;;;6.20;5.10;;;;;1.62;100.00;100719.34;473164;115;369263;-54
2021/03/01 02:44:05;;;;;;;;;7.00;6.50;;;;;1.63;100.00;100718.44;481987;113;369323;-54
2021/03/01 02:45:11;;;;;;;;;8.50;6.10;;;;;1.59;100.00;100726.34;482928;112;370980;-53
2021/03/01 02:46:18;;;;;;;;;11.40;7.50;;;;;1.60;100.00;100728.03;482198;112;371570;-54
2021/03/01 02:47:22;;;;;;;;;8.30;6.90;;;;;1.61;100.00;100730.58;480662;112;368741;-54
2021/03/01 02:48:27;;;;;;;;;5.80;5.80;;;;;1.67;100.00;100734.66;480917;112;369223;-54
2021/03/01 02:49:31;;;;;;;;;12.10;8.70;;;;;1.70;100.00;100729.38;480610;112;371834;-53
2021/03/01 02:50:36;;;;;;;;;8.20;7.00;;;;;1.69;100.00;100731.11;483540;112;369831;-54
2021/03/01 02:51:42;;;;;;;;;9.60;7.50;;;;;1.66;100.00;100735.56;477684;113;370094;-54
2021/03/01 02:52:46;;;;;;;;;8.80;6.70;;;;;1.68;100.00;100738.94;481330;112;369554;-55
2021/03/01 02:53:51;;;;;;;;;10.20;8.30;;;;;1.68;100.00;100738.94;485334;112;368727;-56
2021/03/01 02:54:55;;;;;;;;;10.00;6.20;;;;;1.69;100.00;100738.87;475706;112;372608;-55
2021/03/01 02:56:00;;;;;;;;;11.30;7.90;;;;;1.73;100.00;100745.59;484764;112;374460;-53
2021/03/01 02:57:05;;;;;;;;;9.90;8.20;;;;;1.73;100.00;100739.59;488576;111;372515;-53
2021/03/01 02:58:11;;;;;;;;;11.80;9.00;;;;;1.68;100.00;100742.36;487513;111;376598;-54
2021/03/01 02:59:15;;;;;;;;;8.10;6.60;;;;;1.69;100.00;100748.38;484981;111;371216;-54
2021/03/01 03:00:22;;;;;;;;;5.20;4.20;;;;;1.70;100.00;100756.06;488069;111;373034;-53
2021/03/01 03:01:27;;;;;;;;;7.50;6.30;;;;;1.66;100.00;100746.75;486315;111;370951;-53
2021/03/01 03:02:33;;;;;;;;;8.60;7.80;;;;;1.68;100.00;100757.03;484320;111;372164;-53
2021/03/01 03:03:37;;;;;;;;;8.60;8.40;;;;;1.70;100.00;100760.39;487174;111;370825;-52
2021/03/01 03:04:42;;;;;;;;;8.30;8.20;;;;;1.67;100.00;100761.36;486256;111;372265;-54
2021/03/01 03:05:47;;;;;;;;;10.60;7.30;;;;;1.67;100.00;100761.36;486568;111;373826;-54
2021/03/01 03:06:51;;;;;;;;;8.00;7.40;;;;;1.70;100.00;100765.56;486066;111;372773;-54
2021/03/01 03:07:56;;;;;;;;;7.50;7.50;;;;;1.70;100.00;100765.56;486854;111;372597;-55
2021/03/01 03:09:00;;;;;;;;;12.90;9.00;;;;;1.67;100.00;100766.53;488212;111;373069;-52
2021/03/01 03:10:06;;;;;;;;;10.40;9.70;;;;;1.69;100.00;100769.05;486523;111;376305;-53
2021/03/01 03:11:11;;;;;;;;;5.10;4.70;;;;;1.69;100.00;100769.05;484559;111;372342;-53
2021/03/01 03:12:15;;;;;;;;;9.00;7.10;;;;;1.70;100.00;100773.32;487890;110;372601;-53
2021/03/01 03:13:20;;;;;;;;;8.00;7.60;;;;;1.70;100.00;100768.16;487694;111;372276;-54
2021/03/01 03:14:25;;;;;;;;;4.00;3.00;;;;;1.64;100.00;100773.56;486385;111;370776;-54
2021/03/01 03:15:30;;;;;;;;;8.00;8.00;;;;;1.64;100.00;100773.56;486160;112;373220;-53
2021/03/01 03:16:35;;;;;;;;;10.50;9.00;;;;;1.67;100.00;100773.45;488684;111;372341;-54
2021/03/01 03:17:40;;;;;;;;;10.30;8.60;;;;;1.62;100.00;100775.38;488859;110;372204;-51
2021/03/01 03:18:45;;;;;;;;;12.60;9.00;;;;;1.66;100.00;100775.19;486830;110;375302;-53
2021/03/01 03:19:49;;;;;;;;;10.40;7.70;;;;;1.63;100.00;100772.73;487826;111;374863;-55
2021/03/01 03:20:54;;;;;;;;;12.20;8.70;;;;;1.68;100.00;100778.55;487469;110;372268;-54
2021/03/01 03:21:59;;;;;;;;;10.40;8.20;;;;;1.68;100.00;100778.55;488044;110;372964;-53
2021/03/01 03:23:03;;;;;;;;;13.10;9.70;;;;;1.68;100.00;100778.55;488445;111;376495;-54
2021/03/01 03:24:09;;;;;;;;;11.20;9.10;;;;;1.71;100.00;100775.01;487394;111;375854;-54
2021/03/01 03:25:13;;;;;;;;;8.20;6.80;;;;;1.71;100.00;100775.01;487252;111;372528;-53
2021/03/01 03:26:18;;;;;;;;;10.60;7.90;;;;;1.71;100.00;100777.59;487266;111;373909;-55
2021/03/01 03:27:23;;;;;;;;;7.20;5.20;;;;;1.70;100.00;100784.51;486883;111;372930;-52
2021/03/01 03:28:27;;;;;;;;;11.80;8.10;;;;;1.73;100.00;100783.55;486054;111;374683;-53
2021/03/01 03:29:31;;;;;;;;;8.40;7.70;;;;;1.73;100.00;100783.55;485788;111;372247;-52
2021/03/01 03:30:36;;;;;;;;;9.80;8.30;;;;;1.68;100.00;100785.47;486042;111;372024;-52
2021/03/01 03:31:41;;;;;;;;;9.60;8.80;;;;;1.72;100.00;100787.03;485968;110;373472;-53
2021/03/01 03:32:45;;;;;;;;;11.20;9.70;;;;;1.19;100.00;100697.70;489207;110;372942;-57
2021/03/01 03:33:50;;;;;;;;;10.10;8.10;;;;;1.70;100.00;100778.49;486626;111;371303;-53
2021/03/01 03:34:54;;;;;;;;;9.40;8.50;;;;;1.66;100.00;100780.36;487606;111;370864;-54
2021/03/01 03:35:58;;;;;;;;;8.00;7.30;;;;;1.67;100.00;100783.78;486200;111;372687;-53
2021/03/01 03:37:05;;;;;;;;;12.00;9.10;;;;;1.71;100.00;100782.77;488427;110;375989;-54
2021/03/01 03:38:11;;;;;;;;;9.00;8.40;;;;;1.69;100.00;100780.23;487207;111;371659;-53
2021/03/01 03:39:17;;;;;;;;;8.50;8.40;;;;;1.71;100.00;100775.84;485451;111;369058;-53
2021/03/01 03:40:21;;;;;;;;;8.00;6.50;;;;;1.71;100.00;100775.84;486681;111;371219;-54
2021/03/01 03:41:26;;;;;;;;;9.10;7.10;;;;;1.67;100.00;100781.20;483623;111;372086;-54
2021/03/01 03:42:30;;;;;;;;;8.00;7.90;;;;;1.71;100.00;100782.77;486820;110;371932;-54
2021/03/01 03:43:34;;;;;;;;;11.10;7.30;;;;;1.66;100.00;100782.95;481934;113;375107;-54
2021/03/01 03:44:39;;;;;;;;;9.80;6.80;;;;;1.68;100.00;100785.47;477522;112;372261;-51
2021/03/01 03:45:43;;;;;;;;;13.80;7.90;;;;;1.66;100.00;100784.69;479895;112;375903;-54
2021/03/01 03:46:50;;;;;;;;;11.30;8.30;;;;;1.67;100.00;100786.37;484407;112;374785;-52
2021/03/01 03:47:56;;;;;;;;;8.60;6.80;;;;;1.67;100.00;100788.96;485499;111;373989;-53
2021/03/01 03:49:00;;;;;;;;;10.70;8.70;;;;;1.68;100.00;100782.88;487834;110;372617;-54
2021/03/01 03:50:06;;;;;;;;;12.00;9.80;;;;;1.71;100.00;100783.61;488048;111;371876;-52
2021/03/01 03:51:12;;;;;;;;;8.60;8.60;;;;;1.68;100.00;100783.73;489037;110;372285;-52
2021/03/01 03:52:17;;;;;;;;;11.40;9.50;;;;;1.68;100.00;100783.73;487014;111;373303;-52
2021/03/01 03:53:22;;;;;;;;;9.50;8.00;;;;;1.68;100.00;100790.64;487946;110;372943;-53
2021/03/01 03:54:29;;;;;;;;;13.90;11.60;;;;;1.69;100.00;100788.00;483714;111;377048;-52
2021/03/01 03:55:34;;;;;;;;;9.80;9.20;;;;;1.71;100.00;100793.11;484308;111;374076;-53
2021/03/01 03:56:41;;;;;;;;;10.60;8.50;;;;;1.71;100.00;100793.11;481303;111;373129;-54
2021/03/01 03:57:47;;;;;;;;;13.80;12.60;;;;;1.70;100.00;100787.09;477347;113;377193;-53
2021/03/01 03:58:53;;;;;;;;;11.50;8.50;;;;;1.70;100.00;100792.27;476389;113;372301;-54
2021/03/01 03:59:57;;;;;;;;;11.90;10.80;;;;;1.67;100.00;100794.97;471881;114;373726;-54
2021/03/01 04:01:02;;;;;;;;;12.90;10.50;;;;;1.70;100.00;100799.18;475632;113;370536;-53
2021/03/01 04:02:06;;;;;;;;;15.00;11.90;;;;;1.72;100.00;100795.63;476831;113;375195;-54
2021/03/01 04:03:11;;;;;;;;;11.00;10.00;;;;;1.72;100.00;100795.63;473880;113;376417;-53
2021/03/01 04:04:16;;;;;;;;;13.40;9.20;;;;;1.78;100.00;100804.89;470861;114;372793;-54
2021/03/01 04:05:21;;;;;;;;;12.80;8.50;;;;;1.77;100.00;100803.20;470908;114;373565;-54
2021/03/01 04:06:26;;;;;;;;;8.80;8.80;;;;;1.78;100.00;100808.31;479213;112;373647;-55
2021/03/01 04:07:30;;;;;;;;;10.10;10.10;;;;;1.79;100.00;100801.40;477335;113;376945;-53
2021/03/01 04:08:34;;;;;;;;;11.30;9.40;;;;;1.79;100.00;100801.40;474990;112;373732;-53
2021/03/01 04:09:41;;;;;;;;;13.60;11.80;;;;;1.80;100.00;100803.08;466482;116;380334;-53
2021/03/01 04:10:49;;;;;;;;;9.00;8.50;;;;;1.81;100.00;100804.80;469556;115;369775;-55
2021/03/01 04:11:54;;;;;;;;;12.70;10.50;;;;;1.73;100.00;100812.83;476966;113;376372;-53
2021/03/01 04:12:58;;;;;;;;;10.40;9.70;;;;;1.75;100.00;100807.59;478665;113;373847;-54
2021/03/01 04:14:03;;;;;;;;;14.30;11.50;;;;;1.75;100.00;100811.02;474348;113;378342;-54
2021/03/01 04:15:10;;;;;;;;;11.70;10.60;;;;;1.73;100.00;100810.24;474447;113;368016;-53
2021/03/01 04:16:15;;;;;;;;;9.40;8.40;;;;;1.68;100.00;100808.73;477431;113;372169;-53
2021/03/01 04:17:19;;;;;;;;;11.40;11.00;;;;;1.71;100.00;100806.87;477840;113;369476;-54
2021/03/01 04:18:25;;;;;;;;;13.30;12.00;;;;;1.75;100.00;100808.44;471962;113;375816;-54
2021/03/01 04:19:30;;;;;;;;;11.90;11.00;;;;;1.75;100.00;100808.44;473288;115;374885;-56
2021/03/01 04:20:36;;;;;;;;;12.20;10.70;;;;;1.71;100.00;100809.46;472402;115;377077;-52
2021/03/01 04:21:41;;;;;;;;;14.80;12.20;;;;;1.76;100.00;100814.45;471710;113;375826;-53
2021/03/01 04:22:46;;;;;;;;;15.20;12.00;;;;;1.76;100.00;100814.45;476175;113;375826;-53
2021/03/01 04:23:50;;;;;;;;;16.10;13.30;;;;;1.78;100.00;100805.73;472955;113;378682;-55
2021/03/01 04:24:55;;;;;;;;;12.80;10.90;;;;;1.82;100.00;100809.06;474736;114;374782;-52
2021/03/01 04:25:59;;;;;;;;;13.70;11.00;;;;;1.82;100.00;100809.06;472782;114;374860;-53
2021/03/01 04:27:04;;;;;;;;;13.80;11.30;;;;;1.82;100.00;100819.41;472240;114;374663;-54
2021/03/01 04:28:09;;;;;;;;;12.30;9.60;;;;;1.85;100.00;100819.29;472537;114;374265;-54
2021/03/01 04:29:13;;;;;;;;;11.60;11.60;;;;;1.85;100.00;100821.03;478188;113;377558;-54
2021/03/01 04:30:20;;;;;;;;;11.20;11.20;;;;;1.81;100.00;100813.39;464826;117;375484;-55
2021/03/01 04:31:25;;;;;;;;;12.40;10.30;;;;;1.85;100.00;100816.70;461941;117;374201;-53
2021/03/01 04:32:29;;;;;;;;;9.80;8.40;;;;;1.85;100.00;100816.70;464933;116;373101;-53
2021/03/01 04:33:35;;;;;;;;;13.40;11.80;;;;;1.86;100.00;100820.97;461660;118;376804;-53
2021/03/01 04:34:39;;;;;;;;;9.80;9.30;;;;;1.86;100.00;100820.97;464514;116;372993;-55
2021/03/01 04:35:43;;;;;;;;;13.20;9.20;;;;;1.80;100.00;100822.06;464280;116;374381;-55
2021/03/01 04:36:50;;;;;;;;;14.50;10.10;;;;;1.85;100.00;100821.88;462550;117;374475;-52
2021/03/01 04:37:54;;;;;;;;;10.60;9.60;;;;;1.87;100.00;100826.98;463909;117;376120;-52
2021/03/01 04:38:58;;;;;;;;;7.90;6.80;;;;;1.87;100.00;100834.75;464988;117;372723;-54
2021/03/01 04:40:03;;;;;;;;;8.40;7.50;;;;;1.85;100.00;100834.80;461317;117;373592;-53
2021/03/01 04:41:07;;;;;;;;;11.36;9.27;;;;;1.78;100.00;100830.75;464674;117;379651;-53
2021/03/01 04:42:12;;;;;;;;;7.40;7.30;;;;;1.82;100.00;100840.94;465075;116;368163;-55
2021/03/01 04:43:19;;;;;;;;;10.60;8.60;;;;;1.83;100.00;100834.02;462310;117;372885;-54
2021/03/01 04:44:23;;;;;;;;;10.10;8.40;;;;;1.82;100.00;100837.52;465383;117;372551;-54
2021/03/01 04:45:27;;;;;;;;;11.30;8.40;;;;;1.83;100.00;100839.20;463942;116;374971;-55
2021/03/01 04:46:36;;;;;;;;;7.70;7.00;;;;;1.77;100.00;100836.82;461848;116;370048;-55
2021/03/01 04:47:41;;;;;;;;;9.30;8.90;;;;;1.73;100.00;100838.69;465181;116;371778;-53
2021/03/01 04:48:45;;;;;;;;;10.10;8.70;;;;;1.73;100.00;100843.86;463301;117;375246;-54
2021/03/01 04:49:50;;;;;;;;;9.50;8.10;;;;;1.73;100.00;100851.61;479192;112;369395;-54
2021/03/01 04:50:54;;;;;;;;;14.90;10.10;;;;;1.75;100.00;100854.14;476681;113;371393;-54
2021/03/01 04:51:59;;;;;;;;;7.10;7.10;;;;;1.78;100.00;100856.61;477017;113;370000;-55
2021/03/01 04:53:03;;;;;;;;;8.90;6.10;;;;;1.73;100.00;100861.12;476716;113;368263;-53
2021/03/01 04:54:08;;;;;;;;;8.20;6.70;;;;;1.68;100.00;100861.30;477153;113;370428;-54
2021/03/01 04:55:12;;;;;;;;;8.10;7.40;;;;;1.69;100.00;100855.22;467542;115;368717;-55
2021/03/01 04:56:17;;;;;;;;;9.20;8.00;;;;;1.68;100.00;100860.45;469964;115;370807;-54
2021/03/01 04:57:21;;;;;;;;;5.50;4.90;;;;;1.68;100.00;100860.45;473817;114;367192;-53